createdAt,value
2018-06-04T00:00:14.876Z,1013.67
2018-06-04T00:01:14.855Z,1013.68
2018-06-04T00:02:14.828Z,1013.66
2018-06-04T00:03:14.808Z,1013.63
2018-06-04T00:04:14.785Z,1013.67
2018-06-04T00:05:14.757Z,1013.68
2018-06-04T00:06:14.736Z,1013.67
2018-06-04T00:07:14.710Z,1013.68
2018-06-04T00:08:14.687Z,1013.67
2018-06-04T00:09:14.664Z,1013.68
2018-06-04T00:10:14.639Z,1013.60
2018-06-04T00:11:14.615Z,1013.67
2018-06-04T00:12:14.592Z,1013.68
2018-06-04T00:13:14.568Z,1013.64
2018-06-04T00:14:14.546Z,1013.65
2018-06-04T00:15:14.524Z,1013.69
2018-06-04T00:16:14.498Z,1013.66
2018-06-04T00:17:14.473Z,1013.64
2018-06-04T00:18:14.450Z,1013.63
2018-06-04T00:19:14.439Z,1013.63
2018-06-04T00:20:14.403Z,1013.65
2018-06-04T00:21:14.379Z,1013.68
2018-06-04T00:22:14.357Z,1013.62
2018-06-04T00:23:14.331Z,1013.67
2018-06-04T00:24:14.308Z,1013.63
2018-06-04T00:25:14.284Z,1013.61
2018-06-04T00:26:14.263Z,1013.63
2018-06-04T00:27:14.236Z,1013.58
2018-06-04T00:28:14.213Z,1013.63
2018-06-04T00:29:14.189Z,1013.65
2018-06-04T00:30:14.165Z,1013.65
2018-06-04T00:31:14.142Z,1013.63
2018-06-04T00:32:14.161Z,1013.60
2018-06-04T00:33:14.099Z,1013.61
2018-06-04T00:34:14.074Z,1013.59
2018-06-04T00:35:14.046Z,1013.61
2018-06-04T00:36:14.023Z,1013.58
2018-06-04T00:37:13.999Z,1013.56
2018-06-04T00:38:13.975Z,1013.54
2018-06-04T00:39:13.995Z,1013.60
2018-06-04T00:40:13.928Z,1013.54
2018-06-04T00:41:13.908Z,1013.56
2018-06-04T00:42:13.880Z,1013.59
2018-06-04T00:43:13.862Z,1013.54
2018-06-04T00:44:13.834Z,1013.56
2018-06-04T00:45:13.809Z,1013.53
2018-06-04T00:46:13.785Z,1013.51
2018-06-04T00:47:13.765Z,1013.46
2018-06-04T00:48:13.738Z,1013.48
2018-06-04T00:49:13.713Z,1013.50
2018-06-04T00:50:13.690Z,1013.47
2018-06-04T00:51:13.967Z,1013.45
2018-06-04T00:52:13.643Z,1013.49
2018-06-04T00:53:13.626Z,1013.42
2018-06-04T00:54:13.595Z,1013.38
2018-06-04T00:55:13.575Z,1013.43
2018-06-04T00:56:13.546Z,1013.39
2018-06-04T00:57:13.530Z,1013.43
2018-06-04T00:58:13.503Z,1013.38
2018-06-04T00:59:13.475Z,1013.40
2018-06-04T01:00:13.453Z,1013.41
2018-06-04T01:01:13.428Z,1013.40
2018-06-04T01:02:13.404Z,1013.36
2018-06-04T01:03:13.382Z,1013.37
2018-06-04T01:04:13.358Z,1013.40
2018-06-04T01:05:13.339Z,1013.38
2018-06-04T01:06:13.309Z,1013.39
2018-06-04T01:07:13.286Z,1013.36
2018-06-04T01:08:13.265Z,1013.38
2018-06-04T01:09:13.238Z,1013.32
2018-06-04T01:10:13.214Z,1013.33
2018-06-04T01:11:13.196Z,1013.32
2018-06-04T01:12:13.166Z,1013.32
2018-06-04T01:13:13.343Z,1013.32
2018-06-04T01:14:13.135Z,1013.32
2018-06-04T01:15:13.098Z,1013.36
2018-06-04T01:16:13.074Z,1013.37
2018-06-04T01:17:13.051Z,1013.34
2018-06-04T01:18:13.023Z,1013.36
2018-06-04T01:19:13.000Z,1013.35
2018-06-04T01:20:12.985Z,1013.35
2018-06-04T01:21:12.956Z,1013.34
2018-06-04T01:22:12.933Z,1013.37
2018-06-04T01:23:12.904Z,1013.34
2018-06-04T01:24:12.886Z,1013.33
2018-06-04T01:25:12.857Z,1013.34
2018-06-04T01:26:12.834Z,1013.28
2018-06-04T01:27:12.808Z,1013.28
2018-06-04T01:28:12.789Z,1013.32
2018-06-04T01:29:12.763Z,1013.31
2018-06-04T01:30:12.737Z,1013.30
2018-06-04T01:31:12.713Z,1013.30
2018-06-04T01:32:12.893Z,1013.25
2018-06-04T01:33:12.966Z,1013.27
2018-06-04T01:34:12.641Z,1013.23
2018-06-04T01:35:12.619Z,1013.25
2018-06-04T01:36:12.597Z,1013.23
2018-06-04T01:37:12.571Z,1013.29
2018-06-04T01:38:12.549Z,1013.27
2018-06-04T01:39:12.527Z,1013.23
2018-06-04T01:40:12.501Z,1013.26
2018-06-04T01:41:12.477Z,1013.24
2018-06-04T01:42:12.455Z,1013.20
2018-06-04T01:43:12.427Z,1013.21
2018-06-04T01:44:12.403Z,1013.17
2018-06-04T01:45:12.380Z,1013.17
2018-06-04T01:46:12.356Z,1013.14
2018-06-04T01:47:12.333Z,1013.13
2018-06-04T01:48:12.309Z,1013.10
2018-06-04T01:49:12.284Z,1013.11
2018-06-04T01:50:12.266Z,1013.11
2018-06-04T01:51:12.242Z,1013.10
2018-06-04T01:52:12.218Z,1013.08
2018-06-04T01:53:12.192Z,1013.09
2018-06-04T01:54:12.165Z,1013.09
2018-06-04T01:55:12.143Z,1013.08
2018-06-04T01:56:12.120Z,1013.09
2018-06-04T01:57:12.095Z,1013.05
2018-06-04T01:58:12.072Z,1013.07
2018-06-04T01:59:12.049Z,1013.04
2018-06-04T02:00:12.025Z,1013.06
2018-06-04T02:01:12.000Z,1013.05
2018-06-04T02:02:11.977Z,1013.01
2018-06-04T02:03:11.954Z,1013.02
2018-06-04T02:04:11.931Z,1012.98
2018-06-04T02:05:11.908Z,1013.00
2018-06-04T02:06:11.884Z,1013.01
2018-06-04T02:07:11.859Z,1012.99
2018-06-04T02:08:11.837Z,1013.01
2018-06-04T02:09:11.813Z,1012.99
2018-06-04T02:10:11.795Z,1012.97
2018-06-04T02:11:11.766Z,1012.98
2018-06-04T02:12:11.745Z,1012.99
2018-06-04T02:13:11.721Z,1013.04
2018-06-04T02:14:11.698Z,1013.06
2018-06-04T02:15:11.676Z,1013.04
2018-06-04T02:16:11.650Z,1013.03
2018-06-04T02:17:11.626Z,1013.06
2018-06-04T02:18:11.602Z,1012.98
2018-06-04T02:19:11.581Z,1013.04
2018-06-04T02:20:11.560Z,1012.98
2018-06-04T02:21:11.532Z,1013.01
2018-06-04T02:22:11.518Z,1012.99
2018-06-04T02:23:11.486Z,1012.93
2018-06-04T02:24:11.463Z,1012.97
2018-06-04T02:25:11.438Z,1012.94
2018-06-04T02:26:11.415Z,1012.97
2018-06-04T02:27:11.392Z,1012.99
2018-06-04T02:28:11.368Z,1013.00
2018-06-04T02:29:11.344Z,1012.95
2018-06-04T02:30:11.322Z,1012.95
2018-06-04T02:31:11.297Z,1012.93
2018-06-04T02:32:11.284Z,1012.90
2018-06-04T02:33:11.264Z,1012.88
2018-06-04T02:34:11.228Z,1012.85
2018-06-04T02:35:11.207Z,1012.83
2018-06-04T02:36:11.182Z,1012.81
2018-06-04T02:37:11.166Z,1012.79
2018-06-04T02:38:11.138Z,1012.79
2018-06-04T02:39:11.112Z,1012.87
2018-06-04T02:40:11.090Z,1012.73
2018-06-04T02:41:11.065Z,1012.83
2018-06-04T02:42:11.041Z,1012.78
2018-06-04T02:43:11.018Z,1012.80
2018-06-04T02:44:10.996Z,1012.76
2018-06-04T02:45:10.976Z,1012.75
2018-06-04T02:46:10.953Z,1012.80
2018-06-04T02:47:10.930Z,1012.72
2018-06-04T02:48:10.902Z,1012.72
2018-06-04T02:49:10.887Z,1012.67
2018-06-04T02:50:10.963Z,1012.78
2018-06-04T02:51:10.832Z,1012.75
2018-06-04T02:52:10.808Z,1012.75
2018-06-04T02:53:10.798Z,1012.76
2018-06-04T02:54:10.760Z,1012.76
2018-06-04T02:55:10.738Z,1012.76
2018-06-04T02:56:10.715Z,1012.79
2018-06-04T02:57:10.692Z,1012.77
2018-06-04T02:58:10.666Z,1012.78
2018-06-04T02:59:10.643Z,1012.78
2018-06-04T03:00:10.621Z,1012.74
2018-06-04T03:01:10.597Z,1012.73
2018-06-04T03:02:10.574Z,1012.72
2018-06-04T03:03:10.551Z,1012.70
2018-06-04T03:04:10.527Z,1012.73
2018-06-04T03:05:10.514Z,1012.74
2018-06-04T03:06:10.496Z,1012.72
2018-06-04T03:07:10.457Z,1012.73
2018-06-04T03:08:10.442Z,1012.72
2018-06-04T03:09:10.410Z,1012.73
2018-06-04T03:10:10.391Z,1012.73
2018-06-04T03:11:10.365Z,1012.70
2018-06-04T03:12:10.343Z,1012.73
2018-06-04T03:13:10.320Z,1012.71
2018-06-04T03:14:10.294Z,1012.68
2018-06-04T03:15:10.275Z,1012.69
2018-06-04T03:16:10.254Z,1012.69
2018-06-04T03:17:10.224Z,1012.70
2018-06-04T03:18:10.201Z,1012.66
2018-06-04T03:19:10.178Z,1012.66
2018-06-04T03:20:10.155Z,1012.66
2018-06-04T03:21:10.130Z,1012.69
2018-06-04T03:22:10.108Z,1012.61
2018-06-04T03:23:10.084Z,1012.64
2018-06-04T03:24:10.063Z,1012.64
2018-06-04T03:25:10.038Z,1012.64
2018-06-04T03:26:10.014Z,1012.62
2018-06-04T03:27:09.994Z,1012.60
2018-06-04T03:28:09.969Z,1012.60
2018-06-04T03:29:09.947Z,1012.61
2018-06-04T03:30:09.922Z,1012.54
2018-06-04T03:31:09.898Z,1012.56
2018-06-04T03:32:09.876Z,1012.61
2018-06-04T03:33:09.853Z,1012.55
2018-06-04T03:34:09.829Z,1012.50
2018-06-04T03:35:09.807Z,1012.53
2018-06-04T03:36:09.786Z,1012.58
2018-06-04T03:37:09.759Z,1012.60
2018-06-04T03:38:09.743Z,1012.57
2018-06-04T03:39:09.712Z,1012.58
2018-06-04T03:40:09.690Z,1012.52
2018-06-04T03:41:09.667Z,1012.54
2018-06-04T03:42:09.643Z,1012.52
2018-06-04T03:43:09.622Z,1012.54
2018-06-04T03:44:09.598Z,1012.54
2018-06-04T03:45:09.575Z,1012.52
2018-06-04T03:46:09.554Z,1012.51
2018-06-04T03:47:09.527Z,1012.54
2018-06-04T03:48:09.505Z,1012.58
2018-06-04T03:49:09.481Z,1012.52
2018-06-04T03:50:09.458Z,1012.52
2018-06-04T03:51:09.435Z,1012.50
2018-06-04T03:52:09.473Z,1012.49
2018-06-04T03:53:09.388Z,1012.53
2018-06-04T03:54:09.369Z,1012.49
2018-06-04T03:55:09.344Z,1012.45
2018-06-04T03:56:09.328Z,1012.45
2018-06-04T03:57:09.299Z,1012.47
2018-06-04T03:58:09.275Z,1012.45
2018-06-04T03:59:09.250Z,1012.44
2018-06-04T04:00:09.231Z,1012.44
2018-06-04T04:01:09.204Z,1012.44
2018-06-04T04:02:09.181Z,1012.50
2018-06-04T04:03:09.162Z,1012.49
2018-06-04T04:04:09.135Z,1012.45
2018-06-04T04:05:09.111Z,1012.45
2018-06-04T04:06:09.093Z,1012.38
2018-06-04T04:07:09.066Z,1012.42
2018-06-04T04:08:09.043Z,1012.49
2018-06-04T04:09:09.018Z,1012.41
2018-06-04T04:10:08.997Z,1012.45
2018-06-04T04:11:08.973Z,1012.42
2018-06-04T04:12:08.950Z,1012.40
2018-06-04T04:13:08.926Z,1012.42
2018-06-04T04:14:08.904Z,1012.43
2018-06-04T04:15:08.886Z,1012.41
2018-06-04T04:16:08.858Z,1012.40
2018-06-04T04:17:08.835Z,1012.37
2018-06-04T04:18:08.813Z,1012.41
2018-06-04T04:19:08.801Z,1012.33
2018-06-04T04:20:08.767Z,1012.41
2018-06-04T04:21:08.741Z,1012.46
2018-06-04T04:22:08.724Z,1012.39
2018-06-04T04:23:08.697Z,1012.43
2018-06-04T04:24:08.675Z,1012.42
2018-06-04T04:25:08.651Z,1012.48
2018-06-04T04:26:08.628Z,1012.45
2018-06-04T04:27:08.607Z,1012.46
2018-06-04T04:28:08.582Z,1012.43
2018-06-04T04:29:08.559Z,1012.42
2018-06-04T04:30:08.537Z,1012.51
2018-06-04T04:31:08.516Z,1012.45
2018-06-04T04:32:08.492Z,1012.42
2018-06-04T04:33:08.471Z,1012.49
2018-06-04T04:34:08.445Z,1012.49
2018-06-04T04:35:08.424Z,1012.53
2018-06-04T04:36:08.400Z,1012.50
2018-06-04T04:37:08.383Z,1012.52
2018-06-04T04:38:08.353Z,1012.46
2018-06-04T04:39:08.330Z,1012.50
2018-06-04T04:40:08.309Z,1012.44
2018-06-04T04:41:08.542Z,1012.51
2018-06-04T04:42:08.262Z,1012.51
2018-06-04T04:43:08.245Z,1012.46
2018-06-04T04:44:08.216Z,1012.50
2018-06-04T04:45:08.193Z,1012.48
2018-06-04T04:46:08.173Z,1012.48
2018-06-04T04:47:08.148Z,1012.55
2018-06-04T04:48:08.126Z,1012.48
2018-06-04T04:49:08.114Z,1012.51
2018-06-04T04:50:08.079Z,1012.49
2018-06-04T04:51:08.060Z,1012.49
2018-06-04T04:52:08.038Z,1012.48
2018-06-04T04:53:08.013Z,1012.44
2018-06-04T04:54:07.989Z,1012.43
2018-06-04T04:55:08.169Z,1012.47
2018-06-04T04:56:07.943Z,1012.38
2018-06-04T04:57:07.920Z,1012.42
2018-06-04T04:58:07.897Z,1012.43
2018-06-04T04:59:07.875Z,1012.38
2018-06-04T05:00:07.855Z,1012.38
2018-06-04T05:01:07.834Z,1012.38
2018-06-04T05:02:07.810Z,1012.37
2018-06-04T05:03:07.785Z,1012.42
2018-06-04T05:04:07.762Z,1012.42
2018-06-04T05:05:07.738Z,1012.37
2018-06-04T05:06:07.715Z,1012.40
2018-06-04T05:07:07.691Z,1012.37
2018-06-04T05:08:07.670Z,1012.40
2018-06-04T05:09:07.646Z,1012.38
2018-06-04T05:10:07.622Z,1012.35
2018-06-04T05:11:07.601Z,1012.42
2018-06-04T05:12:07.577Z,1012.42
2018-06-04T05:13:07.555Z,1012.40
2018-06-04T05:14:07.533Z,1012.40
2018-06-04T05:15:07.509Z,1012.39
2018-06-04T05:16:07.487Z,1012.44
2018-06-04T05:17:07.463Z,1012.41
2018-06-04T05:18:07.440Z,1012.38
2018-06-04T05:19:07.418Z,1012.40
2018-06-04T05:20:07.395Z,1012.40
2018-06-04T05:21:07.372Z,1012.43
2018-06-04T05:22:07.349Z,1012.40
2018-06-04T05:23:07.342Z,1012.37
2018-06-04T05:24:07.304Z,1012.37
2018-06-04T05:25:07.281Z,1012.37
2018-06-04T05:26:07.257Z,1012.39
2018-06-04T05:27:07.245Z,1012.37
2018-06-04T05:28:07.212Z,1012.37
2018-06-04T05:29:07.193Z,1012.36
2018-06-04T05:30:07.168Z,1012.39
2018-06-04T05:31:07.142Z,1012.32
2018-06-04T05:32:07.121Z,1012.29
2018-06-04T05:33:07.097Z,1012.31
2018-06-04T05:34:07.073Z,1012.34
2018-06-04T05:35:07.051Z,1012.35
2018-06-04T05:36:07.029Z,1012.41
2018-06-04T05:37:07.028Z,1012.34
2018-06-04T05:38:06.982Z,1012.37
2018-06-04T05:39:06.964Z,1012.34
2018-06-04T05:40:07.287Z,1012.35
2018-06-04T05:41:06.914Z,1012.33
2018-06-04T05:42:06.892Z,1012.34
2018-06-04T05:43:06.869Z,1012.30
2018-06-04T05:44:06.851Z,1012.41
2018-06-04T05:45:06.822Z,1012.39
2018-06-04T05:46:06.799Z,1012.35
2018-06-04T05:47:06.778Z,1012.35
2018-06-04T05:48:06.756Z,1012.41
2018-06-04T05:49:06.730Z,1012.41
2018-06-04T05:50:06.719Z,1012.38
2018-06-04T05:51:06.685Z,1012.35
2018-06-04T05:52:06.667Z,1012.34
2018-06-04T05:53:06.639Z,1012.36
2018-06-04T05:54:06.620Z,1012.46
2018-06-04T05:55:06.597Z,1012.34
2018-06-04T05:56:06.572Z,1012.28
2018-06-04T05:57:06.548Z,1012.31
2018-06-04T05:58:06.528Z,1012.29
2018-06-04T05:59:06.502Z,1012.37
2018-06-04T06:00:06.480Z,1012.36
2018-06-04T06:01:06.458Z,1012.33
2018-06-04T06:02:06.435Z,1012.35
2018-06-04T06:03:06.417Z,1012.33
2018-06-04T06:04:06.390Z,1012.36
2018-06-04T06:05:06.372Z,1012.37
2018-06-04T06:06:06.342Z,1012.36
2018-06-04T06:07:06.319Z,1012.34
2018-06-04T06:08:06.297Z,1012.35
2018-06-04T06:09:06.328Z,1012.33
2018-06-04T06:10:06.255Z,1012.31
2018-06-04T06:11:06.229Z,1012.33
2018-06-04T06:12:06.208Z,1012.33
2018-06-04T06:13:06.194Z,1012.35
2018-06-04T06:14:06.201Z,1012.31
2018-06-04T06:15:06.136Z,1012.34
2018-06-04T06:16:06.114Z,1012.33
2018-06-04T06:17:06.091Z,1012.33
2018-06-04T06:18:06.084Z,1012.28
2018-06-04T06:19:06.049Z,1012.32
2018-06-04T06:20:06.022Z,1012.33
2018-06-04T06:21:05.999Z,1012.27
2018-06-04T06:22:05.977Z,1012.25
2018-06-04T06:23:05.955Z,1012.26
2018-06-04T06:24:05.932Z,1012.26
2018-06-04T06:25:05.950Z,1012.25
2018-06-04T06:26:05.887Z,1012.22
2018-06-04T06:27:05.865Z,1012.24
2018-06-04T06:28:05.843Z,1012.20
2018-06-04T06:29:05.820Z,1012.27
2018-06-04T06:30:05.799Z,1012.24
2018-06-04T06:31:05.773Z,1012.23
2018-06-04T06:32:05.751Z,1012.25
2018-06-04T06:33:05.730Z,1012.25
2018-06-04T06:34:05.705Z,1012.18
2018-06-04T06:35:05.683Z,1012.24
2018-06-04T06:36:05.660Z,1012.18
2018-06-04T06:37:05.640Z,1012.21
2018-06-04T06:38:05.617Z,1012.23
2018-06-04T06:39:05.592Z,1012.18
2018-06-04T06:40:05.575Z,1012.21
2018-06-04T06:41:05.546Z,1012.22
2018-06-04T06:42:05.524Z,1012.27
2018-06-04T06:43:05.506Z,1012.24
2018-06-04T06:44:05.479Z,1012.29
2018-06-04T06:45:05.455Z,1012.28
2018-06-04T06:46:05.433Z,1012.25
2018-06-04T06:47:05.410Z,1012.23
2018-06-04T06:48:05.389Z,1012.30
2018-06-04T06:49:05.365Z,1012.24
2018-06-04T06:50:05.368Z,1012.23
2018-06-04T06:51:05.322Z,1012.24
2018-06-04T06:52:05.300Z,1012.19
2018-06-04T06:53:05.276Z,1012.16
2018-06-04T06:54:05.254Z,1012.17
2018-06-04T06:55:05.229Z,1012.21
2018-06-04T06:56:05.210Z,1012.20
2018-06-04T06:57:05.184Z,1012.23
2018-06-04T06:58:05.163Z,1012.22
2018-06-04T06:59:05.139Z,1012.21
2018-06-04T07:00:05.119Z,1012.25
2018-06-04T07:01:05.095Z,1012.23
2018-06-04T07:02:05.081Z,1012.24
2018-06-04T07:03:05.051Z,1012.29
2018-06-04T07:04:05.028Z,1012.30
2018-06-04T07:05:05.007Z,1012.28
2018-06-04T07:06:04.983Z,1012.28
2018-06-04T07:07:04.961Z,1012.23
2018-06-04T07:08:04.940Z,1012.27
2018-06-04T07:09:04.918Z,1012.28
2018-06-04T07:10:04.898Z,1012.27
2018-06-04T07:11:04.873Z,1012.31
2018-06-04T07:12:04.851Z,1012.28
2018-06-04T07:13:04.826Z,1012.27
2018-06-04T07:14:04.804Z,1012.29
2018-06-04T07:15:04.792Z,1012.28
2018-06-04T07:16:04.761Z,1012.27
2018-06-04T07:17:04.739Z,1012.27
2018-06-04T07:18:04.717Z,1012.25
2018-06-04T07:19:04.694Z,1012.31
2018-06-04T07:20:04.687Z,1012.30
2018-06-04T07:21:04.650Z,1012.29
2018-06-04T07:22:04.627Z,1012.25
2018-06-04T07:23:04.604Z,1012.29
2018-06-04T07:24:04.586Z,1012.33
2018-06-04T07:25:04.561Z,1012.35
2018-06-04T07:26:04.539Z,1012.34
2018-06-04T07:27:04.517Z,1012.35
2018-06-04T07:28:04.498Z,1012.33
2018-06-04T07:29:04.473Z,1012.32
2018-06-04T07:30:04.450Z,1012.33
2018-06-04T07:31:04.433Z,1012.30
2018-06-04T07:32:04.407Z,1012.33
2018-06-04T07:33:04.384Z,1012.36
2018-06-04T07:34:04.364Z,1012.31
2018-06-04T07:35:04.340Z,1012.34
2018-06-04T07:36:04.317Z,1012.33
2018-06-04T07:37:04.295Z,1012.36
2018-06-04T07:38:04.276Z,1012.39
2018-06-04T07:39:04.251Z,1012.39
2018-06-04T07:40:04.232Z,1012.35
2018-06-04T07:41:04.223Z,1012.37
2018-06-04T07:42:04.183Z,1012.38
2018-06-04T07:43:04.169Z,1012.38
2018-06-04T07:44:04.140Z,1012.46
2018-06-04T07:45:04.116Z,1012.38
2018-06-04T07:46:04.120Z,1012.41
2018-06-04T07:47:04.076Z,1012.39
2018-06-04T07:48:04.051Z,1012.39
2018-06-04T07:49:04.029Z,1012.40
2018-06-04T07:50:04.006Z,1012.36
2018-06-04T07:51:03.983Z,1012.28
2018-06-04T07:52:03.969Z,1012.36
2018-06-04T07:53:03.938Z,1012.39
2018-06-04T07:54:03.916Z,1012.36
2018-06-04T07:55:03.900Z,1012.36
2018-06-04T07:56:03.881Z,1012.33
2018-06-04T07:57:03.849Z,1012.41
2018-06-04T07:58:03.829Z,1012.42
2018-06-04T07:59:03.805Z,1012.38
2018-06-04T08:00:03.789Z,1012.34
2018-06-04T08:01:03.759Z,1012.33
2018-06-04T08:02:03.738Z,1012.39
2018-06-04T08:03:03.721Z,1012.37
2018-06-04T08:04:03.692Z,1012.42
2018-06-04T08:05:03.672Z,1012.33
2018-06-04T08:06:03.648Z,1012.33
2018-06-04T08:07:03.628Z,1012.29
2018-06-04T08:08:03.604Z,1012.33
2018-06-04T08:09:03.581Z,1012.29
2018-06-04T08:10:03.660Z,1012.39
2018-06-04T08:11:03.557Z,1012.33
2018-06-04T08:12:03.515Z,1012.35
2018-06-04T08:13:03.506Z,1012.37
2018-06-04T08:14:03.468Z,1012.32
2018-06-04T08:15:03.447Z,1012.31
2018-06-04T08:16:03.425Z,1012.30
2018-06-04T08:17:03.401Z,1012.32
2018-06-04T08:18:03.435Z,1012.37
2018-06-04T08:19:03.359Z,1012.35
2018-06-04T08:20:03.335Z,1012.39
2018-06-04T08:21:03.312Z,1012.39
2018-06-04T08:22:03.290Z,1012.35
2018-06-04T08:23:03.269Z,1012.39
2018-06-04T08:24:03.288Z,1012.37
2018-06-04T08:25:03.227Z,1012.39
2018-06-04T08:26:03.201Z,1012.40
2018-06-04T08:27:03.188Z,1012.38
2018-06-04T08:28:03.158Z,1012.55
2018-06-04T08:29:03.135Z,1012.49
2018-06-04T08:30:03.116Z,1012.49
2018-06-04T08:31:03.095Z,1012.45
2018-06-04T08:32:03.074Z,1012.50
2018-06-04T08:33:03.046Z,1012.49
2018-06-04T08:34:03.024Z,1012.51
2018-06-04T08:35:03.003Z,1012.57
2018-06-04T08:36:02.983Z,1012.45
2018-06-04T08:37:02.961Z,1012.51
2018-06-04T08:38:02.936Z,1012.58
2018-06-04T08:39:02.918Z,1012.54
2018-06-04T08:40:02.901Z,1012.50
2018-06-04T08:41:02.876Z,1012.52
2018-06-04T08:42:02.856Z,1012.49
2018-06-04T08:43:02.866Z,1012.45
2018-06-04T08:44:02.805Z,1012.49
2018-06-04T08:45:02.782Z,1012.45
2018-06-04T08:46:02.766Z,1012.43
2018-06-04T08:47:02.740Z,1012.47
2018-06-04T08:48:02.718Z,1012.42
2018-06-04T08:49:02.695Z,1012.38
2018-06-04T08:50:02.677Z,1012.49
2018-06-04T08:51:02.703Z,1012.49
2018-06-04T08:52:02.632Z,1012.50
2018-06-04T08:53:02.608Z,1012.46
2018-06-04T08:54:02.593Z,1012.48
2018-06-04T08:55:02.564Z,1012.51
2018-06-04T08:56:02.543Z,1012.56
2018-06-04T08:57:02.525Z,1012.53
2018-06-04T08:58:02.505Z,1012.59
2018-06-04T08:59:02.477Z,1012.56
2018-06-04T09:00:02.456Z,1012.50
2018-06-04T09:01:02.434Z,1012.36
2018-06-04T09:02:02.411Z,1012.53
2018-06-04T09:03:02.395Z,1012.54
2018-06-04T09:04:02.378Z,1012.52
2018-06-04T09:05:02.346Z,1012.48
2018-06-04T09:06:02.325Z,1012.51
2018-06-04T09:07:02.307Z,1012.50
2018-06-04T09:08:02.285Z,1012.47
2018-06-04T09:09:02.261Z,1012.56
2018-06-04T09:10:02.243Z,1012.48
2018-06-04T09:11:02.220Z,1012.60
2018-06-04T09:12:02.198Z,1012.53
2018-06-04T09:13:02.176Z,1012.60
2018-06-04T09:14:02.167Z,1012.56
2018-06-04T09:15:02.132Z,1012.57
2018-06-04T09:16:02.112Z,1012.50
2018-06-04T09:17:02.121Z,1012.49
2018-06-04T09:18:02.083Z,1012.43
2018-06-04T09:19:02.072Z,1012.48
2018-06-04T09:20:02.036Z,1012.53
2018-06-04T09:21:02.005Z,1012.46
2018-06-04T09:22:02.031Z,1012.54
2018-06-04T09:23:01.970Z,1012.49
2018-06-04T09:24:01.942Z,1012.55
2018-06-04T09:25:01.921Z,1012.51
2018-06-04T09:26:01.900Z,1012.53
2018-06-04T09:27:01.883Z,1012.57
2018-06-04T09:28:01.859Z,1012.51
2018-06-04T09:29:01.838Z,1012.58
2018-06-04T09:30:01.820Z,1012.51
2018-06-04T09:31:01.802Z,1012.66
2018-06-04T09:32:01.776Z,1012.62
2018-06-04T09:33:01.757Z,1012.63
2018-06-04T09:34:01.734Z,1012.65
2018-06-04T09:35:01.715Z,1012.60
2018-06-04T09:36:01.694Z,1012.62
2018-06-04T09:37:01.673Z,1012.53
2018-06-04T09:38:01.657Z,1012.48
2018-06-04T09:39:01.634Z,1012.49
2018-06-04T09:40:01.656Z,1012.41
2018-06-04T09:41:01.591Z,1012.39
2018-06-04T09:42:01.590Z,1012.33
2018-06-04T09:43:01.552Z,1012.43
2018-06-04T09:44:01.535Z,1012.38
2018-06-04T09:45:01.517Z,1012.44
2018-06-04T09:46:01.502Z,1012.43
2018-06-04T09:47:01.472Z,1012.47
2018-06-04T09:48:01.452Z,1012.47
2018-06-04T09:49:01.435Z,1012.42
2018-06-04T09:50:01.424Z,1012.41
2018-06-04T09:51:01.426Z,1012.43
2018-06-04T09:52:01.374Z,1012.47
2018-06-04T09:53:01.353Z,1012.47
2018-06-04T09:54:01.378Z,1012.52
2018-06-04T09:55:01.345Z,1012.49
2018-06-04T09:56:01.290Z,1012.49
2018-06-04T09:57:01.271Z,1012.53
2018-06-04T09:58:01.248Z,1012.51
2018-06-04T09:59:01.230Z,1012.52
2018-06-04T10:00:01.210Z,1012.46
2018-06-04T10:01:01.188Z,1012.44
2018-06-04T10:02:01.168Z,1012.38
2018-06-04T10:03:01.151Z,1012.40
2018-06-04T10:04:01.128Z,1012.42
2018-06-04T10:05:01.108Z,1012.39
2018-06-04T10:06:01.089Z,1012.40
2018-06-04T10:07:01.077Z,1012.36
2018-06-04T10:08:01.060Z,1012.47
2018-06-04T10:09:01.027Z,1012.42
2018-06-04T10:10:01.007Z,1012.36
2018-06-04T10:11:00.993Z,1012.35
2018-06-04T10:12:00.968Z,1012.26
2018-06-04T10:13:00.952Z,1012.34
2018-06-04T10:14:00.931Z,1012.34
2018-06-04T10:15:00.907Z,1012.36
2018-06-04T10:16:00.937Z,1012.41
2018-06-04T10:17:00.872Z,1012.38
2018-06-04T10:18:00.846Z,1012.34
2018-06-04T10:19:00.827Z,1012.36
2018-06-04T10:20:00.806Z,1012.35
2018-06-04T10:21:00.786Z,1012.33
2018-06-04T10:22:00.765Z,1012.33
2018-06-04T10:23:00.744Z,1012.30
2018-06-04T10:24:00.725Z,1012.30
2018-06-04T10:25:00.703Z,1012.27
2018-06-04T10:26:00.684Z,1012.33
2018-06-04T10:27:00.669Z,1012.38
2018-06-04T10:28:00.647Z,1012.34
2018-06-04T10:29:00.622Z,1012.25
2018-06-04T10:30:00.602Z,1012.34
2018-06-04T10:31:00.608Z,1012.40
2018-06-04T10:32:00.570Z,1012.35
2018-06-04T10:33:00.559Z,1012.42
2018-06-04T10:34:00.531Z,1012.40
2018-06-04T10:35:00.499Z,1012.37
2018-06-04T10:36:00.480Z,1012.34
2018-06-04T10:37:00.465Z,1012.35
2018-06-04T10:38:00.438Z,1012.31
2018-06-04T10:39:00.419Z,1012.26
2018-06-04T10:40:00.400Z,1012.29
2018-06-04T10:41:00.376Z,1012.27
2018-06-04T10:42:00.356Z,1012.31
2018-06-04T10:43:00.336Z,1012.32
2018-06-04T10:44:00.316Z,1012.34
2018-06-04T10:45:00.297Z,1012.25
2018-06-04T10:46:00.317Z,1012.29
2018-06-04T10:47:00.257Z,1012.21
2018-06-04T10:48:00.235Z,1012.28
2018-06-04T10:49:00.215Z,1012.19
2018-06-04T10:50:00.193Z,1012.21
2018-06-04T10:51:00.172Z,1012.23
2018-06-04T10:52:00.172Z,1012.25
2018-06-04T10:53:00.131Z,1012.26
2018-06-04T10:54:00.118Z,1012.19
2018-06-04T10:55:00.092Z,1012.25
2018-06-04T10:56:00.074Z,1012.18
2018-06-04T10:57:00.063Z,1012.17
2018-06-04T10:58:00.030Z,1012.13
2018-06-04T10:59:00.010Z,1012.17
2018-06-04T11:00:00.003Z,1012.13
2018-06-04T11:00:59.969Z,1012.08
2018-06-04T11:01:59.949Z,1012.11
2018-06-04T11:02:59.929Z,1012.12
2018-06-04T11:03:59.908Z,1012.21
2018-06-04T11:04:59.921Z,1012.26
2018-06-04T11:05:59.871Z,1012.26
2018-06-04T11:06:59.848Z,1012.27
2018-06-04T11:07:59.828Z,1012.24
2018-06-04T11:09:01.009Z,1012.20
2018-06-04T11:09:59.825Z,1012.25
2018-06-04T11:10:59.773Z,1012.31
2018-06-04T11:11:59.750Z,1012.24
2018-06-04T11:12:59.726Z,1012.14
2018-06-04T11:13:59.747Z,1012.14
2018-06-04T11:14:59.752Z,1012.16
2018-06-04T11:15:59.666Z,1012.15
2018-06-04T11:16:59.647Z,1012.16
2018-06-04T11:17:59.631Z,1012.14
2018-06-04T11:18:59.645Z,1012.13
2018-06-04T11:19:59.595Z,1012.11
2018-06-04T11:20:59.592Z,1012.06
2018-06-04T11:21:59.545Z,1012.08
2018-06-04T11:22:59.556Z,1012.09
2018-06-04T11:23:59.509Z,1012.14
2018-06-04T11:24:59.484Z,1012.06
2018-06-04T11:25:59.519Z,1012.02
2018-06-04T11:26:59.447Z,1012.02
2018-06-04T11:27:59.426Z,1011.98
2018-06-04T11:28:59.404Z,1012.00
2018-06-04T11:29:59.388Z,1012.07
2018-06-04T11:30:59.367Z,1011.98
2018-06-04T11:31:59.343Z,1012.05
2018-06-04T11:32:59.321Z,1012.12
2018-06-04T11:33:59.302Z,1012.09
2018-06-04T11:34:59.281Z,1012.06
2018-06-04T11:35:59.262Z,1012.08
2018-06-04T11:36:59.241Z,1012.07
2018-06-04T11:37:59.221Z,1012.10
2018-06-04T11:38:59.205Z,1012.09
2018-06-04T11:39:59.182Z,1012.02
2018-06-04T11:40:59.166Z,1012.06
2018-06-04T11:41:59.140Z,1012.03
2018-06-04T11:42:59.120Z,1012.08
2018-06-04T11:43:59.161Z,1012.03
2018-06-04T11:44:59.083Z,1012.04
2018-06-04T11:45:59.060Z,1012.04
2018-06-04T11:46:59.047Z,1012.04
2018-06-04T11:47:59.027Z,1011.92
2018-06-04T11:48:58.998Z,1011.92
2018-06-04T11:49:58.978Z,1011.98
2018-06-04T11:50:58.958Z,1011.97
2018-06-04T11:51:58.938Z,1011.89
2018-06-04T11:52:58.920Z,1011.80
2018-06-04T11:53:58.898Z,1011.89
2018-06-04T11:54:58.876Z,1011.78
2018-06-04T11:55:58.855Z,1011.82
2018-06-04T11:56:58.838Z,1011.79
2018-06-04T11:57:58.819Z,1011.75
2018-06-04T11:58:58.793Z,1011.79
2018-06-04T11:59:58.773Z,1011.79
2018-06-04T12:00:58.752Z,1011.82
2018-06-04T12:01:58.939Z,1011.76
2018-06-04T12:02:58.716Z,1011.82
2018-06-04T12:03:58.691Z,1011.90
2018-06-04T12:04:58.669Z,1011.89